Time;durP1;ratioP1;P1;durP2;ratioP2;P2;SDS_P1;SDS_P2;PMS_P1;PMS_P2;Temp;Humidity;BMP_temperature;BMP_pressure;BME280_temperature;BME280_humidity;BME280_pressure;Samples;Min_cycle;Max_cycle;Signal;HPM_P1;HPM_P2
2019/05/30 00:01:30;;;;;;;0.9;0.9;;;;;;;23.28;37.29004;1011.337;;;;
2019/05/30 00:03:55;;;;;;;0.8;0.8;;;;;;;23.24;37.25098;1011.354;;;;
2019/05/30 00:06:28;;;;;;;0.7;0.7;;;;;;;23.26;37.20508;1011.362;;;;
2019/05/30 00:09:15;;;;;;;0.7;0.7;;;;;;;23.3;37.06543;1011.365;;;;
2019/05/30 00:11:46;;;;;;;1.1;0.8;;;;;;;23.35;37.00879;1011.335;;;;
2019/05/30 00:14:26;;;;;;;0.6;0.6;;;;;;;23.34;37.04492;1011.385;;;;
2019/05/30 00:17:00;;;;;;;0.9;0.7;;;;;;;23.37;37.01074;1011.405;;;;
2019/05/30 00:19:25;;;;;;;1;1;;;;;;;23.37;36.9873;1011.352;;;;
2019/05/30 00:21:50;;;;;;;0.7;0.7;;;;;;;23.42;36.94434;1011.391;;;;
2019/05/30 00:24:28;;;;;;;0.6;0.6;;;;;;;23.43;36.84961;1011.321;;;;
2019/05/30 00:26:53;;;;;;;0.9;0.7;;;;;;;23.42;36.84863;1011.38;;;;
2019/05/30 00:29:22;;;;;;;0.8;0.7;;;;;;;23.45;36.81445;1011.386;;;;
2019/05/30 00:31:49;;;;;;;0.6;0.6;;;;;;;23.46;36.82715;1011.375;;;;
2019/05/30 00:34:14;;;;;;;0.7;0.6;;;;;;;23.47;36.80469;1011.408;;;;
2019/05/30 00:36:39;;;;;;;0.8;0.7;;;;;;;23.49;36.78223;1011.389;;;;
2019/05/30 00:39:04;;;;;;;0.6;0.6;;;;;;;23.48;36.80566;1011.396;;;;
2019/05/30 00:41:30;;;;;;;0.8;0.8;;;;;;;23.46;36.85254;1011.412;;;;
2019/05/30 00:44:00;;;;;;;0.8;0.7;;;;;;;23.48;36.78223;1011.404;;;;
2019/05/30 00:46:31;;;;;;;0.8;0.7;;;;;;;23.49;36.73438;1011.4;;;;
2019/05/30 00:48:56;;;;;;;0.7;0.6;;;;;;;23.5;36.75977;1011.37;;;;
2019/05/30 00:51:22;;;;;;;0.7;0.6;;;;;;;23.47;36.84082;1011.401;;;;
2019/05/30 00:53:57;;;;;;;1;0.9;;;;;;;23.46;36.86328;1011.424;;;;
2019/05/30 00:56:22;;;;;;;0.7;0.7;;;;;;;23.41;36.95508;1011.35;;;;
2019/05/30 00:59:02;;;;;;;0.6;0.6;;;;;;;23.39;36.98926;1011.347;;;;
2019/05/30 01:01:28;;;;;;;0.7;0.7;;;;;;;23.4;36.99023;1011.397;;;;
2019/05/30 01:03:53;;;;;;;0.6;0.6;;;;;;;23.45;36.91016;1011.378;;;;
2019/05/30 01:06:18;;;;;;;0.8;0.7;;;;;;;23.38;37.05957;1011.423;;;;
2019/05/30 01:08:48;;;;;;;0.8;0.8;;;;;;;23.36;37.10645;1011.446;;;;
2019/05/30 01:11:12;;;;;;;0.9;0.9;;;;;;;23.35;37.12891;1011.429;;;;
2019/05/30 01:13:45;;;;;;;0.8;0.8;;;;;;;23.32;37.19824;1011.425;;;;
2019/05/30 01:16:10;;;;;;;0.9;0.9;;;;;;;23.27;37.29004;1011.419;;;;
2019/05/30 01:18:35;;;;;;;0.8;0.8;;;;;;;23.26;37.28906;1011.433;;;;
2019/05/30 01:21:12;;;;;;;0.9;0.9;;;;;;;23.26;37.27734;1011.402;;;;
2019/05/30 01:23:42;;;;;;;1;1;;;;;;;23.19;37.44922;1011.402;;;;
2019/05/30 01:26:04;;;;;;;0.8;0.8;;;;;;;23.25;37.34766;1011.382;;;;
2019/05/30 01:28:33;;;;;;;0.8;0.8;;;;;;;23.33;37.15137;1011.366;;;;
2019/05/30 01:31:00;;;;;;;0.6;0.6;;;;;;;23.31;37.16211;1011.334;;;;
2019/05/30 01:33:25;;;;;;;1;0.8;;;;;;;23.34;37.11621;1011.366;;;;
2019/05/30 01:35:50;;;;;;;1;0.7;;;;;;;23.3;37.14941;1011.349;;;;
2019/05/30 01:38:15;;;;;;;0.7;0.7;;;;;;;23.25;37.26465;1011.333;;;;
2019/05/30 01:40:55;;;;;;;0.8;0.8;;;;;;;23.28;37.20703;1011.284;;;;
2019/05/30 01:43:32;;;;;;;0.7;0.7;;;;;;;23.23;37.27441;1011.276;;;;
2019/05/30 01:46:02;;;;;;;1.8;0.8;;;;;;;23.27;37.19434;1011.274;;;;
2019/05/30 01:48:28;;;;;;;0.9;0.7;;;;;;;23.18;37.3418;1011.255;;;;
2019/05/30 01:50:53;;;;;;;0.8;0.8;;;;;;;23.2;37.33105;1011.31;;;;
2019/05/30 01:53:18;;;;;;;0.8;0.8;;;;;;;23.18;37.35352;1011.3;;;;
2019/05/30 01:55:43;;;;;;;0.8;0.8;;;;;;;23.13;37.44531;1011.282;;;;
2019/05/30 01:58:08;;;;;;;0.7;0.7;;;;;;;23.18;37.38965;1011.31;;;;
2019/05/30 02:00:33;;;;;;;0.8;0.8;;;;;;;23.24;37.2627;1011.343;;;;
2019/05/30 02:02:58;;;;;;;0.7;0.6;;;;;;;23.23;37.25098;1011.341;;;;
2019/05/30 02:05:23;;;;;;;0.8;0.8;;;;;;;23.16;37.37598;1011.336;;;;
2019/05/30 02:07:48;;;;;;;0.7;0.7;;;;;;;23.2;37.33105;1011.358;;;;
2019/05/30 02:10:23;;;;;;;1.4;0.9;;;;;;;23.16;37.36426;1011.364;;;;
2019/05/30 02:12:49;;;;;;;0.7;0.7;;;;;;;23.15;37.35156;1011.33;;;;
2019/05/30 02:15:15;;;;;;;0.8;0.7;;;;;;;23.18;37.31836;1011.339;;;;
2019/05/30 02:17:39;;;;;;;0.6;0.6;;;;;;;23.2;37.27148;1011.363;;;;
2019/05/30 02:20:04;;;;;;;1.2;1;;;;;;;23.2;37.2959;1011.367;;;;
2019/05/30 02:22:30;;;;;;;0.6;0.6;;;;;;;23.24;37.17969;1011.398;;;;
2019/05/30 02:24:55;;;;;;;0.9;0.9;;;;;;;23.24;37.19141;1011.398;;;;
2019/05/30 02:27:20;;;;;;;1.1;0.8;;;;;;;23.21;37.16504;1011.366;;;;
2019/05/30 02:29:45;;;;;;;0.6;0.6;;;;;;;23.22;37.20215;1011.401;;;;
2019/05/30 02:32:12;;;;;;;0.9;0.9;;;;;;;23.16;37.2207;1011.379;;;;
2019/05/30 02:34:37;;;;;;;0.8;0.7;;;;;;;23.14;37.31445;1011.363;;;;
2019/05/30 02:37:02;;;;;;;0.9;0.8;;;;;;;23.18;37.16309;1011.341;;;;
2019/05/30 02:39:34;;;;;;;0.7;0.7;;;;;;;23.2;37.18848;1011.323;;;;
2019/05/30 02:41:59;;;;;;;1.1;0.8;;;;;;;23.24;37.13184;1011.357;;;;
2019/05/30 02:44:24;;;;;;;0.7;0.7;;;;;;;23.25;37.10938;1011.368;;;;
2019/05/30 02:46:57;;;;;;;0.8;0.8;;;;;;;23.23;37.10742;1011.385;;;;
2019/05/30 02:49:21;;;;;;;0.8;0.6;;;;;;;23.25;37.06152;1011.376;;;;
2019/05/30 02:51:46;;;;;;;0.9;0.9;;;;;;;23.17;37.18555;1011.32;;;;
2019/05/30 02:54:11;;;;;;;0.8;0.8;;;;;;;23.18;37.12695;1011.303;;;;
2019/05/30 02:56:36;;;;;;;1;0.8;;;;;;;23.13;37.16992;1011.332;;;;
2019/05/30 02:59:13;;;;;;;0.8;0.8;;;;;;;23.18;37.10352;1011.349;;;;
2019/05/30 03:01:47;;;;;;;0.7;0.7;;;;;;;23.18;37.10352;1011.378;;;;
2019/05/30 03:04:12;;;;;;;0.9;0.9;;;;;;;23.17;37.08984;1011.411;;;;
2019/05/30 03:07:02;;;;;;;0.8;0.8;;;;;;;23.12;37.14648;1011.458;;;;
2019/05/30 03:09:27;;;;;;;0.9;0.8;;;;;;;23.12;37.20605;1011.492;;;;
2019/05/30 03:11:53;;;;;;;0.9;0.7;;;;;;;23.19;37.10352;1011.526;;;;
2019/05/30 03:14:20;;;;;;;1.9;0.8;;;;;;;23.16;37.07715;1011.506;;;;
2019/05/30 03:16:45;;;;;;;0.8;0.8;;;;;;;23.13;37.14648;1011.504;;;;
2019/05/30 03:19:13;;;;;;;0.8;0.8;;;;;;;23.12;37.09766;1011.509;;;;
2019/05/30 03:21:39;;;;;;;2.1;1;;;;;;;23.08;37.13086;1011.561;;;;
2019/05/30 03:24:19;;;;;;;0.8;0.8;;;;;;;23.04;37.27051;1011.599;;;;
2019/05/30 03:26:51;;;;;;;1.1;0.8;;;;;;;23.01;37.19629;1011.601;;;;
2019/05/30 03:29:16;;;;;;;1.1;0.7;;;;;;;23.03;37.24512;1011.685;;;;
2019/05/30 03:32:01;;;;;;;0.7;0.7;;;;;;;23.06;37.15234;1011.686;;;;
2019/05/30 03:34:33;;;;;;;1.4;0.6;;;;;;;23.08;37.09473;1011.652;;;;
2019/05/30 03:37:04;;;;;;;0.9;0.8;;;;;;;23.09;37.07227;1011.682;;;;
2019/05/30 03:39:30;;;;;;;0.8;0.8;;;;;;;23.1;37.04883;1011.717;;;;
2019/05/30 03:41:55;;;;;;;0.8;0.8;;;;;;;23.12;37.00195;1011.723;;;;
2019/05/30 03:44:42;;;;;;;0.7;0.7;;;;;;;23.08;36.92676;1011.747;;;;
2019/05/30 03:47:14;;;;;;;0.9;0.9;;;;;;;23.04;37.0791;1011.779;;;;
2019/05/30 03:49:39;;;;;;;0.8;0.7;;;;;;;23.02;37.06543;1011.767;;;;
2019/05/30 03:52:04;;;;;;;0.9;0.9;;;;;;;23.04;37.0918;1011.826;;;;
2019/05/30 03:54:29;;;;;;;1;0.7;;;;;;;23.1;36.96484;1011.88;;;;
2019/05/30 03:56:54;;;;;;;1;0.8;;;;;;;23.13;36.88379;1011.857;;;;
2019/05/30 03:59:23;;;;;;;1;0.7;;;;;;;23.14;36.84961;1011.86;;;;
2019/05/30 04:02:46;;;;;;;1.4;0.6;;;;;;;23.15;36.85059;1011.908;;;;
2019/05/30 04:05:27;;;;;;;0.5;0.5;;;;;;;23.15;36.80273;1011.903;;;;
2019/05/30 04:07:55;;;;;;;0.7;0.5;;;;;;;23.16;36.82715;1011.932;;;;
2019/05/30 04:10:26;;;;;;;1.2;0.6;;;;;;;23.17;36.74414;1011.922;;;;
2019/05/30 04:13:05;;;;;;;2.2;0.8;;;;;;;23.04;36.9248;1011.97;;;;
2019/05/30 04:15:32;;;;;;;1.4;0.6;;;;;;;23.08;36.92676;1011.974;;;;
2019/05/30 04:17:59;;;;;;;1;0.7;;;;;;;23;36.96875;1011.993;;;;
2019/05/30 04:20:27;;;;;;;1.1;0.7;;;;;;;23.04;36.94824;1011.974;;;;
2019/05/30 04:23:17;;;;;;;1.4;0.6;;;;;;;23.03;36.9834;1011.932;;;;
2019/05/30 04:25:42;;;;;;;0.7;0.6;;;;;;;23.09;36.89258;1011.953;;;;
2019/05/30 04:28:07;;;;;;;0.9;0.5;;;;;;;23.11;36.91699;1011.966;;;;
2019/05/30 04:30:32;;;;;;;1.1;0.6;;;;;;;23.1;36.95313;1012.025;;;;
2019/05/30 04:33:02;;;;;;;1.3;0.5;;;;;;;23.16;36.85059;1012.068;;;;
2019/05/30 04:35:27;;;;;;;1.5;0.7;;;;;;;23.18;36.82813;1012.083;;;;
2019/05/30 04:37:52;;;;;;;1;0.5;;;;;;;23.25;36.71484;1012.055;;;;
2019/05/30 04:40:17;;;;;;;1.9;0.6;;;;;;;23.29;36.63477;1012.078;;;;
2019/05/30 04:42:42;;;;;;;2.7;0.9;;;;;;;23.39;36.46289;1012.112;;;;
2019/05/30 04:45:07;;;;;;;0.8;0.8;;;;;;;23.53;36.21191;1012.128;;;;
2019/05/30 04:47:32;;;;;;;1.1;1;;;;;;;23.61;35.99121;1012.095;;;;
2019/05/30 04:49:57;;;;;;;1.3;0.8;;;;;;;23.66;35.91211;1012.08;;;;
2019/05/30 04:52:22;;;;;;;2;0.8;;;;;;;23.7;35.7832;1012.125;;;;
2019/05/30 04:54:48;;;;;;;1.1;0.8;;;;;;;23.76;35.66895;1012.141;;;;
2019/05/30 04:57:13;;;;;;;1.3;1;;;;;;;23.73;35.66699;1012.126;;;;
2019/05/30 04:59:38;;;;;;;1;0.9;;;;;;;23.84;35.60449;1012.096;;;;
2019/05/30 05:02:03;;;;;;;1.4;0.8;;;;;;;23.91;35.2627;1012.133;;;;
2019/05/30 05:04:30;;;;;;;1.4;0.9;;;;;;;24.09;35.02637;1012.155;;;;
2019/05/30 05:07:10;;;;;;;0.7;0.7;;;;;;;24.08;35.03711;1012.164;;;;
2019/05/30 05:09:35;;;;;;;1.3;0.9;;;;;;;24.14;34.99414;1012.141;;;;
2019/05/30 05:12:01;;;;;;;1;0.9;;;;;;;24.14;34.96973;1012.126;;;;
2019/05/30 05:14:26;;;;;;;1.1;1;;;;;;;24.11;34.87207;1012.146;;;;
2019/05/30 05:16:58;;;;;;;0.7;0.7;;;;;;;24.08;34.8584;1012.171;;;;
2019/05/30 05:19:48;;;;;;;1.6;0.9;;;;;;;24.32;34.48145;1012.261;;;;
2019/05/30 05:22:13;;;;;;;1.1;0.7;;;;;;;24.41;34.4043;1012.281;;;;
2019/05/30 05:24:38;;;;;;;0.9;0.8;;;;;;;24.48;34.31348;1012.355;;;;
2019/05/30 05:27:03;;;;;;;0.7;0.5;;;;;;;24.62;34.10938;1012.367;;;;
2019/05/30 05:29:28;;;;;;;1.1;0.5;;;;;;;24.78;33.71387;1012.387;;;;
2019/05/30 05:31:53;;;;;;;0.6;0.6;;;;;;;24.9;33.60352;1012.427;;;;
2019/05/30 05:34:18;;;;;;;1;0.9;;;;;;;24.94;33.29492;1012.399;;;;
2019/05/30 05:36:44;;;;;;;0.7;0.7;;;;;;;25.06;33.18359;1012.45;;;;
2019/05/30 05:39:09;;;;;;;0.6;0.5;;;;;;;25.14;33.07031;1012.473;;;;
2019/05/30 05:41:34;;;;;;;0.3;0.3;;;;;;;25.21;32.87109;1012.475;;;;
2019/05/30 05:44:14;;;;;;;1.5;0.5;;;;;;;25.28;32.7207;1012.49;;;;
2019/05/30 05:46:38;;;;;;;0.6;0.5;;;;;;;25.34;32.66504;1012.508;;;;
2019/05/30 05:49:04;;;;;;;0.5;0.5;;;;;;;25.43;32.46777;1012.575;;;;
2019/05/30 05:51:29;;;;;;;0.9;0.5;;;;;;;25.49;32.3877;1012.551;;;;
2019/05/30 05:53:54;;;;;;;1;0.3;;;;;;;25.5;32.30469;1012.556;;;;
2019/05/30 05:56:19;;;;;;;1.2;0.4;;;;;;;25.51;32.28027;1012.587;;;;
2019/05/30 05:58:57;;;;;;;0.3;0.3;;;;;;;25.53;32.22266;1012.617;;;;
2019/05/30 06:01:34;;;;;;;0.6;0.5;;;;;;;25.55;32.21191;1012.635;;;;
2019/05/30 06:03:59;;;;;;;0.3;0.3;;;;;;;25.57;32.15332;1012.653;;;;
2019/05/30 06:06:24;;;;;;;0.5;0.5;;;;;;;25.55;32.21191;1012.674;;;;
2019/05/30 06:08:49;;;;;;;0.5;0.5;;;;;;;25.61;32.05957;1012.688;;;;
2019/05/30 06:11:14;;;;;;;0.9;0.6;;;;;;;25.59;32.14355;1012.733;;;;
2019/05/30 06:13:40;;;;;;;1;0.7;;;;;;;25.62;32.08496;1012.74;;;;
2019/05/30 06:16:12;;;;;;;0.8;0.6;;;;;;;25.63;32.06152;1012.773;;;;
2019/05/30 06:18:43;;;;;;;1;0.9;;;;;;;25.65;32.06348;1012.713;;;;
2019/05/30 06:21:08;;;;;;;0.8;0.7;;;;;;;25.71;31.95996;1012.721;;;;
2019/05/30 06:23:33;;;;;;;0.7;0.7;;;;;;;25.67;32.0293;1012.735;;;;
2019/05/30 06:26:06;;;;;;;0.6;0.6;;;;;;;25.72;31.91113;1012.769;;;;
2019/05/30 06:28:31;;;;;;;0.5;0.5;;;;;;;25.79;31.7373;1012.818;;;;
2019/05/30 06:31:01;;;;;;;0.6;0.6;;;;;;;25.82;31.75098;1012.859;;;;
2019/05/30 06:33:26;;;;;;;0.9;0.5;;;;;;;25.8;31.78613;1012.847;;;;
2019/05/30 06:35:51;;;;;;;0.9;0.7;;;;;;;25.86;31.69336;1012.843;;;;
2019/05/30 06:38:29;;;;;;;0.7;0.7;;;;;;;25.9;31.60059;1012.865;;;;
2019/05/30 06:40:54;;;;;;;1.2;0.9;;;;;;;25.96;31.61719;1012.863;;;;
2019/05/30 06:43:38;;;;;;;0.9;0.7;;;;;;;26.02;31.54883;1012.818;;;;
2019/05/30 06:46:12;;;;;;;0.7;0.7;;;;;;;26.1;31.44727;1012.845;;;;
2019/05/30 06:48:37;;;;;;;0.9;0.8;;;;;;;26.09;31.44531;1012.847;;;;
2019/05/30 06:51:02;;;;;;;1.2;1;;;;;;;26.08;31.62598;1012.86;;;;
2019/05/30 06:53:27;;;;;;;1.1;1;;;;;;;26.49;30.99219;1012.808;;;;
2019/05/30 06:55:52;;;;;;;1.4;0.8;;;;;;;26.36;31.17578;1012.843;;;;
2019/05/30 06:58:17;;;;;;;1.5;0.8;;;;;;;26.08;31.66211;1012.906;;;;
2019/05/30 07:00:42;;;;;;;1.5;0.9;;;;;;;25.93;32.08301;1012.946;;;;
2019/05/30 07:03:07;;;;;;;0.6;0.6;;;;;;;25.99;31.90723;1012.961;;;;
2019/05/30 07:05:32;;;;;;;0.8;0.8;;;;;;;26.05;31.7666;1012.931;;;;
2019/05/30 07:07:58;;;;;;;0.9;0.7;;;;;;;26.04;31.7793;1012.914;;;;
2019/05/30 07:10:26;;;;;;;0.7;0.7;;;;;;;26.1;31.6875;1012.935;;;;
2019/05/30 07:13:12;;;;;;;1.2;0.7;;;;;;;26.18;31.62109;1012.951;;;;
2019/05/30 07:15:37;;;;;;;1.2;0.9;;;;;;;26.64;30.85938;1012.92;;;;
2019/05/30 07:18:08;;;;;;;0.6;0.6;;;;;;;26.28;31.49512;1012.97;;;;
2019/05/30 07:20:33;;;;;;;0.6;0.5;;;;;;;26.22;31.58691;1012.997;;;;
2019/05/30 07:22:58;;;;;;;0.4;0.4;;;;;;;26.23;31.50293;1012.999;;;;
2019/05/30 07:25:23;;;;;;;0.9;0.5;;;;;;;26.23;31.43164;1012.958;;;;
2019/05/30 07:27:48;;;;;;;0.5;0.3;;;;;;;26.28;31.37402;1013.008;;;;
2019/05/30 07:30:28;;;;;;;1;0.3;;;;;;;26.34;31.1875;1012.979;;;;
2019/05/30 07:33:03;;;;;;;1.1;0.4;;;;;;;28.79;27.33203;1012.956;;;;
2019/05/30 07:35:28;;;;;;;0.7;0.3;;;;;;;30.91;24.08398;1012.931;;;;
2019/05/30 07:37:53;;;;;;;0.3;0.3;;;;;;;32.5;22.01172;1012.958;;;;
2019/05/30 07:40:18;;;;;;;0.4;0.3;;;;;;;33.35;20.8916;1012.959;;;;
2019/05/30 07:42:43;;;;;;;0.6;0.5;;;;;;;33.93;20.20996;1013;;;;
2019/05/30 07:45:09;;;;;;;1.1;0.4;;;;;;;34.32;19.70117;1012.962;;;;
2019/05/30 07:47:34;;;;;;;0.3;0.3;;;;;;;34.61;19.32129;1012.909;;;;
2019/05/30 07:49:59;;;;;;;0.9;0.3;;;;;;;35.09;18.80273;1012.916;;;;
2019/05/30 07:52:24;;;;;;;0.3;0.3;;;;;;;35.27;18.57617;1012.936;;;;
2019/05/30 07:54:49;;;;;;;1;0.4;;;;;;;35.54;18.26855;1012.962;;;;
2019/05/30 07:57:14;;;;;;;1.2;0.6;;;;;;;35.78;18.15625;1012.937;;;;
2019/05/30 07:59:39;;;;;;;0.7;0.3;;;;;;;35.83;18.01074;1012.975;;;;
2019/05/30 08:02:04;;;;;;;0.4;0.3;;;;;;;36;17.80859;1012.958;;;;
2019/05/30 08:04:40;;;;;;;0.9;0.5;;;;;;;36.23;17.53418;1013.01;;;;
2019/05/30 08:07:08;;;;;;;1.7;0.5;;;;;;;36.32;17.45215;1012.967;;;;
2019/05/30 08:09:33;;;;;;;0.5;0.4;;;;;;;36.58;17.21582;1012.938;;;;
2019/05/30 08:11:59;;;;;;;0.5;0.5;;;;;;;36.69;17.08496;1012.941;;;;
2019/05/30 08:14:24;;;;;;;0.5;0.5;;;;;;;36.64;17.12012;1012.906;;;;
2019/05/30 08:16:49;;;;;;;0.8;0.5;;;;;;;35.93;17.79297;1012.855;;;;
2019/05/30 08:19:14;;;;;;;0.6;0.6;;;;;;;32.51;21.58496;1012.925;;;;
2019/05/30 08:21:39;;;;;;;0.6;0.6;;;;;;;30.61;24.12891;1012.843;;;;
2019/05/30 08:24:04;;;;;;;0.7;0.7;;;;;;;29.97;25.1123;1012.895;;;;
2019/05/30 08:26:29;;;;;;;1;0.9;;;;;;;29.5;25.87305;1012.854;;;;
2019/05/30 08:28:54;;;;;;;1.3;0.6;;;;;;;29.18;26.35156;1012.849;;;;
2019/05/30 08:31:19;;;;;;;1.3;0.8;;;;;;;28.93;26.77148;1012.872;;;;
2019/05/30 08:33:45;;;;;;;0.6;0.5;;;;;;;28.66;27.20313;1012.866;;;;
2019/05/30 08:36:10;;;;;;;0.7;0.7;;;;;;;28.47;27.48047;1012.871;;;;
2019/05/30 08:38:35;;;;;;;0.9;0.7;;;;;;;28.3;27.76074;1012.874;;;;
2019/05/30 08:41:09;;;;;;;0.7;0.7;;;;;;;28.18;27.98242;1012.884;;;;
2019/05/30 08:43:56;;;;;;;0.7;0.7;;;;;;;28.03;28.20313;1012.884;;;;
2019/05/30 08:46:21;;;;;;;1.5;0.7;;;;;;;27.92;28.35254;1012.819;;;;
2019/05/30 08:48:46;;;;;;;0.7;0.6;;;;;;;27.85;28.49316;1012.827;;;;
2019/05/30 08:51:11;;;;;;;0.7;0.7;;;;;;;27.79;28.6709;1012.839;;;;
2019/05/30 08:53:46;;;;;;;0.8;0.8;;;;;;;27.7;28.86914;1012.813;;;;
2019/05/30 08:56:25;;;;;;;1.4;0.7;;;;;;;27.61;28.99609;1012.767;;;;
2019/05/30 08:58:50;;;;;;;0.9;0.9;;;;;;;27.5;29.25488;1012.769;;;;
2019/05/30 09:01:15;;;;;;;0.8;0.8;;;;;;;27.35;29.52148;1012.768;;;;
2019/05/30 09:03:41;;;;;;;0.8;0.8;;;;;;;27.25;29.68359;1012.727;;;;
2019/05/30 09:06:15;;;;;;;1;0.7;;;;;;;27.21;30.00586;1012.735;;;;
2019/05/30 09:08:46;;;;;;;1.8;0.7;;;;;;;27.17;29.95508;1012.679;;;;
2019/05/30 09:11:18;;;;;;;0.9;0.6;;;;;;;27.07;30.10547;1012.682;;;;
2019/05/30 09:13:45;;;;;;;0.7;0.7;;;;;;;27.02;30.15039;1012.643;;;;
2019/05/30 09:16:10;;;;;;;0.8;0.8;;;;;;;26.97;30.24316;1012.607;;;;
2019/05/30 09:18:38;;;;;;;0.8;0.8;;;;;;;26.92;30.3125;1012.599;;;;
2019/05/30 09:21:17;;;;;;;1.3;0.7;;;;;;;26.9;30.31055;1012.552;;;;
2019/05/30 09:23:59;;;;;;;0.7;0.7;;;;;;;26.85;30.4043;1012.529;;;;
2019/05/30 09:26:37;;;;;;;0.7;0.7;;;;;;;26.8;30.49609;1012.529;;;;
2019/05/30 09:29:02;;;;;;;1;0.9;;;;;;;26.77;30.50684;1012.516;;;;
2019/05/30 09:31:27;;;;;;;0.7;0.7;;;;;;;26.73;30.56348;1012.528;;;;
2019/05/30 09:33:57;;;;;;;0.7;0.7;;;;;;;26.72;30.56348;1012.53;;;;
2019/05/30 09:36:38;;;;;;;1;0.8;;;;;;;26.65;30.58203;1012.545;;;;
2019/05/30 09:39:03;;;;;;;0.8;0.8;;;;;;;26.62;30.53223;1012.493;;;;
2019/05/30 09:41:31;;;;;;;0.8;0.8;;;;;;;26.59;30.66309;1012.486;;;;
2019/05/30 09:44:14;;;;;;;0.8;0.8;;;;;;;26.58;30.56543;1012.568;;;;
2019/05/30 09:46:58;;;;;;;0.8;0.8;;;;;;;26.61;30.42383;1012.574;;;;
2019/05/30 09:49:27;;;;;;;0.8;0.8;;;;;;;26.58;30.50586;1012.553;;;;
2019/05/30 09:51:52;;;;;;;1.6;0.7;;;;;;;26.52;30.28516;1012.534;;;;
2019/05/30 09:54:17;;;;;;;0.7;0.7;;;;;;;26.46;30.30566;1012.544;;;;
2019/05/30 09:56:45;;;;;;;1;0.6;;;;;;;26.43;30.43555;1012.506;;;;
2019/05/30 09:59:10;;;;;;;0.7;0.7;;;;;;;26.4;30.27734;1012.471;;;;
2019/05/30 10:01:41;;;;;;;0.7;0.7;;;;;;;26.36;30.39453;1012.429;;;;
2019/05/30 10:04:06;;;;;;;0.6;0.6;;;;;;;26.36;30.3584;1012.465;;;;
2019/05/30 10:06:31;;;;;;;0.9;0.5;;;;;;;26.34;30.46484;1012.438;;;;
2019/05/30 10:09:02;;;;;;;0.5;0.5;;;;;;;26.33;30.34473;1012.392;;;;
2019/05/30 10:11:37;;;;;;;0.5;0.5;;;;;;;26.33;30.27246;1012.415;;;;
2019/05/30 10:14:28;;;;;;;0.4;0.4;;;;;;;26.3;30.08984;1012.404;;;;
2019/05/30 10:17:05;;;;;;;0.6;0.5;;;;;;;26.26;30.06348;1012.366;;;;
2019/05/30 10:19:30;;;;;;;1.6;0.7;;;;;;;26.2;30.05957;1012.342;;;;
2019/05/30 10:21:55;;;;;;;1.7;0.6;;;;;;;26.13;29.75391;1012.32;;;;
2019/05/30 10:24:20;;;;;;;0.5;0.5;;;;;;;26.13;29.85059;1012.342;;;;
2019/05/30 10:26:56;;;;;;;0.6;0.5;;;;;;;26.11;29.98047;1012.313;;;;
2019/05/30 10:29:33;;;;;;;0.5;0.5;;;;;;;26.11;30.14941;1012.328;;;;
2019/05/30 10:32:06;;;;;;;0.9;0.5;;;;;;;26.08;29.91895;1012.309;;;;
2019/05/30 10:34:43;;;;;;;0.5;0.5;;;;;;;26.04;30.0127;1012.276;;;;
2019/05/30 10:37:08;;;;;;;0.6;0.6;;;;;;;26.04;30.1084;1012.308;;;;
2019/05/30 10:39:34;;;;;;;0.6;0.6;;;;;;;26.03;29.94043;1012.298;;;;
2019/05/30 10:41:59;;;;;;;0.5;0.5;;;;;;;26;30.0459;1012.286;;;;
2019/05/30 10:44:24;;;;;;;0.4;0.4;;;;;;;25.98;29.9248;1012.292;;;;
2019/05/30 10:46:59;;;;;;;0.4;0.4;;;;;;;25.98;30.02051;1012.27;;;;
2019/05/30 10:49:44;;;;;;;0.4;0.4;;;;;;;25.97;30.09277;1012.246;;;;
2019/05/30 10:52:27;;;;;;;0.6;0.6;;;;;;;25.96;30.05469;1012.194;;;;
2019/05/30 10:54:53;;;;;;;1.4;0.6;;;;;;;25.94;30.10254;1012.298;;;;
2019/05/30 10:57:18;;;;;;;1.2;0.9;;;;;;;25.91;29.67969;1012.166;;;;
2019/05/30 10:59:43;;;;;;;0.6;0.6;;;;;;;25.9;29.79883;1012.129;;;;
2019/05/30 11:02:08;;;;;;;1.3;0.6;;;;;;;25.88;29.97754;1012.128;;;;
2019/05/30 11:04:33;;;;;;;0.6;0.6;;;;;;;25.87;30.06152;1012.199;;;;
2019/05/30 11:06:58;;;;;;;0.7;0.6;;;;;;;25.87;29.92969;1012.153;;;;
2019/05/30 11:09:24;;;;;;;0.6;0.6;;;;;;;25.83;29.81836;1012.186;;;;
2019/05/30 11:11:49;;;;;;;0.6;0.6;;;;;;;25.84;29.93848;1012.216;;;;
2019/05/30 11:14:14;;;;;;;0.6;0.6;;;;;;;25.83;30.01074;1012.171;;;;
2019/05/30 11:16:39;;;;;;;0.6;0.6;;;;;;;25.8;29.93652;1012.103;;;;
2019/05/30 11:19:04;;;;;;;0.6;0.6;;;;;;;25.78;29.81543;1012.104;;;;
2019/05/30 11:21:29;;;;;;;1.1;0.8;;;;;;;25.74;29.25977;1012.018;;;;
2019/05/30 11:23:55;;;;;;;1;0.7;;;;;;;25.73;29.60742;1012.024;;;;
2019/05/30 11:26:20;;;;;;;0.8;0.8;;;;;;;25.74;29.64453;1012.004;;;;
2019/05/30 11:28:46;;;;;;;0.5;0.5;;;;;;;25.73;29.66797;1011.962;;;;
2019/05/30 11:31:11;;;;;;;0.7;0.7;;;;;;;25.73;29.60742;1011.902;;;;
2019/05/30 11:33:37;;;;;;;0.8;0.6;;;;;;;25.73;29.60742;1011.901;;;;
2019/05/30 11:36:02;;;;;;;0.5;0.5;;;;;;;25.71;29.61816;1011.92;;;;
2019/05/30 11:38:27;;;;;;;0.6;0.6;;;;;;;25.7;29.4375;1011.919;;;;
2019/05/30 11:40:53;;;;;;;0.9;0.7;;;;;;;25.66;29.49512;1011.825;;;;
2019/05/30 11:43:18;;;;;;;0.5;0.5;;;;;;;25.65;29.27832;1011.878;;;;
2019/05/30 11:45:43;;;;;;;0.5;0.5;;;;;;;25.68;29.41211;1011.818;;;;
2019/05/30 11:48:08;;;;;;;0.5;0.5;;;;;;;25.69;29.41211;1011.816;;;;
2019/05/30 11:50:39;;;;;;;0.7;0.7;;;;;;;25.66;29.39844;1011.818;;;;
2019/05/30 11:53:14;;;;;;;1.5;0.6;;;;;;;25.68;29.28027;1011.829;;;;
2019/05/30 11:55:39;;;;;;;0.4;0.4;;;;;;;25.68;29.32813;1011.801;;;;
2019/05/30 11:58:04;;;;;;;0.9;0.6;;;;;;;25.65;29.13477;1011.766;;;;
2019/05/30 12:00:31;;;;;;;0.9;0.6;;;;;;;25.66;29.32715;1011.698;;;;
2019/05/30 12:02:56;;;;;;;0.5;0.5;;;;;;;25.64;29.36133;1011.806;;;;
2019/05/30 12:05:22;;;;;;;0.7;0.6;;;;;;;25.65;29.14551;1011.783;;;;
2019/05/30 12:07:47;;;;;;;0.5;0.5;;;;;;;25.64;29.19336;1011.755;;;;
2019/05/30 12:10:22;;;;;;;0.4;0.4;;;;;;;25.64;29.06152;1011.77;;;;
2019/05/30 12:13:01;;;;;;;0.7;0.4;;;;;;;25.65;29.14648;1011.759;;;;
2019/05/30 12:15:29;;;;;;;0.6;0.4;;;;;;;25.63;29.18066;1011.763;;;;
2019/05/30 12:17:55;;;;;;;0.6;0.5;;;;;;;25.65;29.16992;1011.695;;;;
2019/05/30 12:20:21;;;;;;;0.5;0.5;;;;;;;25.59;29.05859;1011.762;;;;
2019/05/30 12:22:46;;;;;;;0.6;0.6;;;;;;;25.61;29.04688;1011.698;;;;
2019/05/30 12:25:20;;;;;;;0.4;0.4;;;;;;;25.61;29.08301;1011.705;;;;
2019/05/30 12:27:50;;;;;;;0.6;0.6;;;;;;;25.62;28.87988;1011.736;;;;
2019/05/30 12:30:15;;;;;;;0.6;0.5;;;;;;;25.62;28.71191;1011.766;;;;
2019/05/30 12:32:54;;;;;;;0.5;0.4;;;;;;;25.65;28.78516;1011.706;;;;
2019/05/30 12:35:19;;;;;;;0.6;0.6;;;;;;;25.63;28.91699;1011.693;;;;
2019/05/30 12:37:44;;;;;;;0.5;0.4;;;;;;;25.63;28.82129;1011.703;;;;
2019/05/30 12:40:10;;;;;;;1.1;0.6;;;;;;;25.65;28.80957;1011.733;;;;
2019/05/30 12:42:43;;;;;;;1.3;0.6;;;;;;;25.65;28.8457;1011.736;;;;
2019/05/30 12:45:21;;;;;;;0.7;0.7;;;;;;;25.66;28.77441;1011.759;;;;
2019/05/30 12:47:58;;;;;;;0.7;0.7;;;;;;;25.69;28.78809;1011.715;;;;
2019/05/30 12:50:29;;;;;;;1.8;0.9;;;;;;;25.71;29.19824;1011.667;;;;
2019/05/30 12:52:54;;;;;;;0.8;0.8;;;;;;;25.7;29.1377;1011.741;;;;
2019/05/30 12:55:19;;;;;;;0.8;0.8;;;;;;;25.75;28.97266;1011.74;;;;
2019/05/30 12:57:45;;;;;;;1.7;0.9;;;;;;;25.75;29.02051;1011.721;;;;
2019/05/30 13:00:10;;;;;;;0.8;0.8;;;;;;;25.78;29.08203;1011.712;;;;
2019/05/30 13:02:47;;;;;;;0.7;0.7;;;;;;;25.78;29.03516;1011.783;;;;
2019/05/30 13:05:24;;;;;;;0.8;0.8;;;;;;;25.79;29.01172;1011.787;;;;
2019/05/30 13:07:49;;;;;;;0.9;0.9;;;;;;;25.78;29.08203;1011.761;;;;
2019/05/30 13:10:14;;;;;;;0.9;0.9;;;;;;;25.76;29.0459;1011.762;;;;
2019/05/30 13:12:39;;;;;;;1.5;1;;;;;;;25.78;28.98633;1011.701;;;;
2019/05/30 13:15:18;;;;;;;0.9;0.9;;;;;;;25.75;29.05664;1011.705;;;;
2019/05/30 13:18:03;;;;;;;0.8;0.8;;;;;;;25.77;29.0459;1011.664;;;;
2019/05/30 13:20:28;;;;;;;1.1;0.8;;;;;;;25.8;29.08398;1011.645;;;;
2019/05/30 13:22:53;;;;;;;0.8;0.8;;;;;;;25.79;29.17969;1011.631;;;;
2019/05/30 13:25:18;;;;;;;0.7;0.7;;;;;;;25.79;29.14355;1011.668;;;;
2019/05/30 13:27:43;;;;;;;0.8;0.8;;;;;;;25.78;29.21484;1011.653;;;;
2019/05/30 13:30:19;;;;;;;1.1;1;;;;;;;25.76;29.27344;1011.651;;;;
2019/05/30 13:32:47;;;;;;;1.6;0.9;;;;;;;25.76;29.21289;1011.643;;;;
2019/05/30 13:35:12;;;;;;;0.9;0.8;;;;;;;25.75;29.32031;1011.705;;;;
2019/05/30 13:37:37;;;;;;;1.2;0.8;;;;;;;25.75;29.4043;1011.666;;;;
2019/05/30 13:40:02;;;;;;;1.1;1;;;;;;;25.75;29.33301;1011.709;;;;
2019/05/30 13:42:27;;;;;;;1.1;0.9;;;;;;;25.76;29.42969;1011.721;;;;
2019/05/30 13:44:54;;;;;;;0.8;0.7;;;;;;;25.76;29.26172;1011.715;;;;
2019/05/30 13:47:19;;;;;;;0.8;0.8;;;;;;;25.73;29.34277;1011.747;;;;
2019/05/30 13:49:44;;;;;;;0.7;0.7;;;;;;;25.76;29.27344;1011.742;;;;
2019/05/30 13:52:09;;;;;;;1.4;0.9;;;;;;;25.77;29.2373;1011.78;;;;
2019/05/30 13:54:34;;;;;;;0.8;0.6;;;;;;;25.82;29.2168;1011.812;;;;
2019/05/30 13:57:00;;;;;;;0.8;0.7;;;;;;;25.83;29.24219;1011.823;;;;
2019/05/30 13:59:25;;;;;;;1;0.8;;;;;;;25.85;29.1709;1011.785;;;;
2019/05/30 14:01:50;;;;;;;0.8;0.6;;;;;;;25.83;29.32617;1011.828;;;;
2019/05/30 14:04:15;;;;;;;1;0.7;;;;;;;25.87;29.36523;1011.808;;;;
2019/05/30 14:06:56;;;;;;;0.7;0.5;;;;;;;25.85;29.4834;1011.807;;;;
2019/05/30 14:09:22;;;;;;;0.6;0.6;;;;;;;25.88;29.46191;1011.767;;;;
2019/05/30 14:11:47;;;;;;;0.7;0.6;;;;;;;25.88;29.37695;1011.775;;;;
2019/05/30 14:14:12;;;;;;;0.9;0.7;;;;;;;25.9;29.40234;1011.828;;;;
2019/05/30 14:16:37;;;;;;;1.1;0.8;;;;;;;25.91;29.40332;1011.777;;;;
2019/05/30 14:19:02;;;;;;;0.7;0.7;;;;;;;25.91;29.41504;1011.804;;;;
2019/05/30 14:21:27;;;;;;;0.9;0.9;;;;;;;25.88;29.6543;1011.761;;;;
2019/05/30 14:23:52;;;;;;;0.8;0.8;;;;;;;25.89;29.66602;1011.813;;;;
2019/05/30 14:26:17;;;;;;;0.9;0.9;;;;;;;25.9;29.64258;1011.762;;;;
2019/05/30 14:28:42;;;;;;;1.1;1;;;;;;;25.91;29.70313;1011.831;;;;
2019/05/30 14:31:08;;;;;;;2.3;0.8;;;;;;;25.89;29.71387;1011.782;;;;